Time;durP1;ratioP1;P1;durP2;ratioP2;P2;SDS_P1;SDS_P2;PMS_P1;PMS_P2;Temp;Humidity;BMP_temperature;BMP_pressure;BME280_temperature;BME280_humidity;BME280_pressure;Samples;Min_cycle;Max_cycle;Signal;HPM_P1;HPM_P2
2022/10/01 00:02:06;;;;;;;0.70;0.70;;;6.00;99.90;;;;;;5028996;28;20435;-67
2022/10/01 00:04:42;;;;;;;1.00;1.00;;;6.10;99.90;;;;;;5012255;28;20419;-67
2022/10/01 00:07:13;;;;;;;0.63;0.63;;;6.30;99.90;;;;;;5008851;28;20440;-68
2022/10/01 00:09:40;;;;;;;1.90;0.80;;;6.50;99.90;;;;;;5009357;28;20421;-68
2022/10/01 00:12:07;;;;;;;0.98;0.95;;;6.60;99.90;;;;;;5009295;28;20436;-67
2022/10/01 00:14:37;;;;;;;0.70;0.70;;;6.70;99.90;;;;;;5007903;28;20910;-67
2022/10/01 00:17:04;;;;;;;0.90;0.90;;;6.80;99.90;;;;;;5009017;28;20436;-67
2022/10/01 00:19:31;;;;;;;1.08;0.88;;;6.80;99.90;;;;;;5008622;28;20433;-68
2022/10/01 00:21:58;;;;;;;1.05;0.77;;;7.00;99.90;;;;;;5014335;28;20442;-67
2022/10/01 00:24:24;;;;;;;1.00;1.00;;;7.10;99.90;;;;;;5033736;28;20816;-67
2022/10/01 00:26:52;;;;;;;1.40;1.05;;;7.10;99.90;;;;;;5046377;28;20423;-67
2022/10/01 00:29:22;;;;;;;0.73;0.73;;;7.10;99.90;;;;;;5071327;28;20472;-67
2022/10/01 00:31:49;;;;;;;1.13;1.13;;;7.20;99.90;;;;;;5070479;28;20427;-68
2022/10/01 00:34:16;;;;;;;0.93;0.93;;;7.20;99.90;;;;;;5050544;28;20753;-68
2022/10/01 00:36:42;;;;;;;0.70;0.70;;;7.30;99.90;;;;;;5052788;28;20464;-68
2022/10/01 00:39:12;;;;;;;1.23;0.93;;;7.30;99.90;;;;;;5070777;28;20817;-68
2022/10/01 00:41:39;;;;;;;1.33;1.23;;;7.30;99.90;;;;;;5070728;28;20962;-67
2022/10/01 00:44:28;;;;;;;1.55;1.45;;;7.40;99.90;;;;;;5070625;28;20432;-68
2022/10/01 00:47:01;;;;;;;1.40;1.23;;;7.40;99.90;;;;;;5070867;28;20787;-67
2022/10/01 00:49:32;;;;;;;2.10;1.15;;;7.50;99.90;;;;;;5070787;28;20434;-67
2022/10/01 00:52:06;;;;;;;1.23;1.15;;;7.50;99.90;;;;;;5070833;28;20423;-68
2022/10/01 00:54:41;;;;;;;1.40;1.00;;;7.50;99.90;;;;;;5070336;28;20427;-68
2022/10/01 00:57:14;;;;;;;1.20;1.20;;;7.60;99.90;;;;;;5070661;28;20415;-68
2022/10/01 00:59:42;;;;;;;1.00;1.00;;;7.50;99.90;;;;;;5064784;28;20419;-67
2022/10/01 01:02:15;;;;;;;1.73;1.05;;;7.60;99.90;;;;;;5069957;28;20435;-68
2022/10/01 01:04:42;;;;;;;0.88;0.88;;;7.60;99.90;;;;;;5069835;28;20423;-68
2022/10/01 01:07:09;;;;;;;1.90;1.37;;;7.60;99.90;;;;;;5069357;28;20443;-68
2022/10/01 01:09:50;;;;;;;1.10;0.87;;;7.60;99.90;;;;;;5070773;28;20428;-68
2022/10/01 01:12:50;;;;;;;1.25;1.15;;;7.60;99.90;;;;;;5070411;28;20427;-67
2022/10/01 01:15:30;;;;;;;1.60;1.13;;;7.60;99.90;;;;;;5070029;28;20435;-68
2022/10/01 01:18:26;;;;;;;1.10;1.05;;;7.60;99.90;;;;;;5069292;28;20774;-67
2022/10/01 01:21:03;;;;;;;1.42;1.33;;;7.50;99.90;;;;;;5050567;28;20442;-67
2022/10/01 01:23:36;;;;;;;2.80;1.00;;;7.50;99.90;;;;;;5046690;28;20495;-67
2022/10/01 01:26:27;;;;;;;1.02;1.02;;;7.40;99.90;;;;;;5047178;28;20480;-67
2022/10/01 01:29:00;;;;;;;1.10;1.00;;;7.40;99.90;;;;;;5047328;28;20815;-67
2022/10/01 01:31:34;;;;;;;1.05;1.05;;;7.40;99.90;;;;;;5047075;28;20538;-67
2022/10/01 01:34:12;;;;;;;0.90;0.90;;;7.40;99.90;;;;;;5046931;28;20606;-67
2022/10/01 01:36:43;;;;;;;0.85;0.85;;;7.50;99.90;;;;;;5047427;28;20436;-67
2022/10/01 01:39:13;;;;;;;0.90;0.90;;;7.50;99.90;;;;;;5047388;28;20429;-67
2022/10/01 01:41:48;;;;;;;2.53;1.08;;;7.50;99.90;;;;;;5047432;28;20863;-67
2022/10/01 01:44:22;;;;;;;1.30;1.20;;;7.60;99.90;;;;;;5046380;28;20436;-67
2022/10/01 01:46:55;;;;;;;0.88;0.88;;;7.60;99.90;;;;;;5046838;28;20425;-68
2022/10/01 01:49:22;;;;;;;1.10;1.10;;;7.60;99.90;;;;;;5046797;28;20425;-68
2022/10/01 01:51:58;;;;;;;1.10;1.10;;;7.70;99.90;;;;;;5030415;28;20464;-68
2022/10/01 01:54:24;;;;;;;1.50;1.13;;;7.80;99.90;;;;;;5046786;28;20907;-69
2022/10/01 01:56:54;;;;;;;1.50;1.40;;;7.80;99.90;;;;;;5053446;28;20419;-68
2022/10/01 01:59:25;;;;;;;1.88;1.77;;;7.90;99.90;;;;;;5085219;28;20427;-68
2022/10/01 02:01:52;;;;;;;1.60;1.50;;;7.90;99.90;;;;;;5069666;28;20917;-68
2022/10/01 02:04:38;;;;;;;1.50;1.40;;;7.90;99.90;;;;;;5069195;28;20867;-68
2022/10/01 02:07:27;;;;;;;1.63;1.38;;;8.00;99.90;;;;;;5068670;28;20427;-69
2022/10/01 02:10:02;;;;;;;2.05;1.48;;;8.00;99.90;;;;;;5069863;28;20518;-67
2022/10/01 02:13:28;;;;;;;1.17;1.17;;;8.00;99.90;;;;;;5069714;28;20427;-68
2022/10/01 02:16:03;;;;;;;2.30;1.83;;;8.00;99.90;;;;;;4970673;28;20440;-69
2022/10/01 02:18:59;;;;;;;1.45;1.45;;;8.00;99.90;;;;;;4986326;28;20448;-69
2022/10/01 02:21:54;;;;;;;1.95;1.85;;;8.00;99.90;;;;;;4951806;28;20894;-68
2022/10/01 02:24:47;;;;;;;1.80;1.70;;;8.00;99.90;;;;;;4967406;28;20440;-68
2022/10/01 02:27:37;;;;;;;1.15;1.05;;;8.00;99.90;;;;;;4967612;28;20443;-68
2022/10/01 02:30:07;;;;;;;1.73;1.63;;;8.10;99.90;;;;;;4968024;28;20432;-68
2022/10/01 02:32:37;;;;;;;1.60;1.50;;;8.00;99.90;;;;;;4968180;28;20438;-68
2022/10/01 02:35:10;;;;;;;1.58;1.48;;;8.00;99.90;;;;;;4967835;28;20988;-68
2022/10/01 02:37:40;;;;;;;3.20;1.73;;;8.00;99.90;;;;;;4968055;28;20775;-68
2022/10/01 02:40:14;;;;;;;1.45;1.45;;;8.10;99.90;;;;;;4971516;28;20428;-68
2022/10/01 02:42:45;;;;;;;1.70;1.60;;;8.10;99.90;;;;;;4971620;28;20436;-68
2022/10/01 02:45:14;;;;;;;1.48;1.38;;;8.10;99.90;;;;;;4955465;28;20465;-68
2022/10/01 02:47:46;;;;;;;1.98;1.88;;;8.10;99.90;;;;;;4971946;28;20436;-68
2022/10/01 02:50:13;;;;;;;2.58;1.23;;;8.20;99.90;;;;;;5019144;28;20432;-68
2022/10/01 02:53:07;;;;;;;2.25;1.63;;;8.20;99.90;;;;;;5053005;28;20433;-68
2022/10/01 02:55:39;;;;;;;3.95;2.05;;;8.20;99.90;;;;;;5053106;28;20433;-68
2022/10/01 02:58:08;;;;;;;1.60;1.50;;;8.20;99.90;;;;;;5052933;28;20993;-68
2022/10/01 03:00:35;;;;;;;2.38;1.63;;;8.20;99.90;;;;;;5054184;28;20433;-68
2022/10/01 03:03:01;;;;;;;1.60;1.40;;;8.30;99.90;;;;;;5072467;28;20427;-68
2022/10/01 03:05:28;;;;;;;1.77;1.67;;;8.30;99.90;;;;;;5071010;28;20431;-68
2022/10/01 03:07:55;;;;;;;1.20;1.20;;;8.30;99.90;;;;;;5072674;28;20463;-69
2022/10/01 03:10:21;;;;;;;1.30;1.20;;;8.30;99.90;;;;;;5072751;28;20497;-68
2022/10/01 03:12:49;;;;;;;1.20;1.08;;;8.40;99.90;;;;;;5072731;28;20431;-69
2022/10/01 03:15:18;;;;;;;1.97;1.40;;;8.40;99.90;;;;;;5072525;28;20437;-68
2022/10/01 03:17:45;;;;;;;1.30;1.20;;;8.40;99.90;;;;;;5071321;28;20872;-68
2022/10/01 03:20:12;;;;;;;1.48;1.38;;;8.50;99.90;;;;;;5072587;28;20435;-68
2022/10/01 03:22:39;;;;;;;2.72;1.65;;;8.50;99.90;;;;;;5071506;28;20442;-68
2022/10/01 03:25:08;;;;;;;1.20;1.15;;;8.60;99.90;;;;;;5070525;28;20982;-68
2022/10/01 03:27:35;;;;;;;1.17;1.17;;;8.60;99.90;;;;;;5072449;28;20423;-68
2022/10/01 03:30:04;;;;;;;0.93;0.82;;;8.70;99.90;;;;;;5072517;28;20431;-68
2022/10/01 03:32:33;;;;;;;2.05;1.50;;;8.70;99.90;;;;;;5072211;28;20499;-69
2022/10/01 03:35:00;;;;;;;1.50;1.40;;;8.70;99.90;;;;;;5070650;28;20419;-67
2022/10/01 03:37:27;;;;;;;1.13;1.10;;;8.70;99.90;;;;;;5072246;28;20434;-67
2022/10/01 03:39:53;;;;;;;1.52;1.42;;;8.70;99.90;;;;;;5072315;28;20427;-66
2022/10/01 03:42:20;;;;;;;1.00;0.80;;;8.70;99.90;;;;;;5072402;28;20435;-66
2022/10/01 03:44:47;;;;;;;1.00;1.00;;;8.70;99.90;;;;;;5071796;28;20444;-66
2022/10/01 03:47:14;;;;;;;0.90;0.90;;;8.70;99.90;;;;;;5071898;28;20779;-66
2022/10/01 03:49:40;;;;;;;2.00;1.10;;;8.70;99.90;;;;;;5071004;28;20431;-66
2022/10/01 03:52:07;;;;;;;1.10;1.00;;;8.70;99.90;;;;;;5070950;28;20427;-66
2022/10/01 03:54:34;;;;;;;0.80;0.80;;;8.60;99.90;;;;;;5071565;28;20439;-66
2022/10/01 03:57:00;;;;;;;0.80;0.80;;;8.60;99.90;;;;;;5072065;28;20439;-67
2022/10/01 03:59:28;;;;;;;1.42;1.30;;;8.50;99.90;;;;;;5071762;28;20797;-66
2022/10/01 04:01:55;;;;;;;0.60;0.60;;;8.50;99.90;;;;;;5071015;28;20861;-67
2022/10/01 04:04:22;;;;;;;1.10;1.00;;;8.50;99.90;;;;;;5071479;28;20438;-67
2022/10/01 04:06:50;;;;;;;1.08;0.98;;;8.50;99.90;;;;;;5071636;28;21109;-67
2022/10/01 04:09:17;;;;;;;1.05;0.80;;;8.40;99.90;;;;;;5071778;28;20435;-68
2022/10/01 04:11:44;;;;;;;0.90;0.90;;;8.50;99.90;;;;;;5071605;28;20464;-66
2022/10/01 04:14:10;;;;;;;0.63;0.63;;;8.40;99.90;;;;;;5070925;28;20436;-65
2022/10/01 04:16:44;;;;;;;0.80;0.80;;;8.50;99.90;;;;;;5071557;28;20438;-65
2022/10/01 04:19:13;;;;;;;1.50;0.80;;;8.50;99.90;;;;;;5071421;28;20435;-65
2022/10/01 04:21:40;;;;;;;1.10;1.00;;;8.50;99.90;;;;;;5071313;28;20925;-65
2022/10/01 04:24:07;;;;;;;1.00;0.90;;;8.50;99.90;;;;;;5070881;28;20876;-65
2022/10/01 04:26:33;;;;;;;0.70;0.70;;;8.50;99.90;;;;;;5070042;28;20455;-65
2022/10/01 04:29:00;;;;;;;0.80;0.80;;;8.50;99.90;;;;;;5071094;28;20427;-65
2022/10/01 04:31:33;;;;;;;0.40;0.40;;;8.50;99.90;;;;;;5071329;28;20420;-65
2022/10/01 04:34:03;;;;;;;0.73;0.73;;;8.50;99.90;;;;;;5071114;28;20427;-65
2022/10/01 04:36:36;;;;;;;0.60;0.60;;;8.50;99.90;;;;;;5070035;28;20431;-64
2022/10/01 04:39:03;;;;;;;0.50;0.50;;;8.50;99.90;;;;;;5071159;28;20436;-65
2022/10/01 04:41:30;;;;;;;0.70;0.60;;;8.50;99.90;;;;;;5070912;28;20443;-65
2022/10/01 04:44:00;;;;;;;0.90;0.90;;;8.50;99.90;;;;;;5070100;28;20423;-65
2022/10/01 04:46:31;;;;;;;1.00;1.00;;;8.50;99.90;;;;;;5070822;28;20423;-66
2022/10/01 04:48:57;;;;;;;0.82;0.82;;;8.60;99.90;;;;;;5071033;28;20419;-65
2022/10/01 04:51:24;;;;;;;0.80;0.70;;;8.50;99.90;;;;;;5070828;28;20427;-65
2022/10/01 04:53:51;;;;;;;1.27;1.13;;;8.60;99.90;;;;;;5070023;28;20435;-66
2022/10/01 04:56:17;;;;;;;0.60;0.60;;;8.60;99.90;;;;;;5070705;28;20431;-66
2022/10/01 04:58:48;;;;;;;0.70;0.70;;;8.60;99.90;;;;;;5070581;28;20427;-66
2022/10/01 05:01:14;;;;;;;1.08;0.75;;;8.60;99.90;;;;;;5070106;28;20439;-65
2022/10/01 05:03:41;;;;;;;0.80;0.80;;;8.60;99.90;;;;;;5070051;28;20995;-67
2022/10/01 05:06:08;;;;;;;1.00;1.00;;;8.60;99.90;;;;;;5070396;28;20912;-65
2022/10/01 05:08:35;;;;;;;0.75;0.75;;;8.60;99.90;;;;;;5070576;28;20435;-66
2022/10/01 05:11:02;;;;;;;0.47;0.47;;;8.60;99.90;;;;;;5069205;28;20428;-65
2022/10/01 05:13:30;;;;;;;0.50;0.50;;;8.60;99.90;;;;;;5070128;28;20427;-67
2022/10/01 05:15:57;;;;;;;0.47;0.45;;;8.60;99.90;;;;;;5070362;28;20431;-67
2022/10/01 05:18:24;;;;;;;0.55;0.55;;;8.60;99.90;;;;;;5071064;28;20894;-68
2022/10/01 05:20:54;;;;;;;0.65;0.65;;;8.60;99.90;;;;;;5070062;28;20434;-67
2022/10/01 05:23:21;;;;;;;0.52;0.52;;;8.60;99.90;;;;;;5070136;28;20427;-68
2022/10/01 05:26:04;;;;;;;0.50;0.50;;;8.60;99.90;;;;;;5067949;28;20428;-67
2022/10/01 05:28:31;;;;;;;0.65;0.60;;;8.60;99.90;;;;;;5070282;28;20432;-68
2022/10/01 05:30:59;;;;;;;1.27;1.13;;;8.60;99.90;;;;;;5070101;28;20481;-67
2022/10/01 05:33:27;;;;;;;1.50;0.60;;;8.60;99.90;;;;;;5069496;28;20437;-68
2022/10/01 05:35:53;;;;;;;1.40;0.60;;;8.60;99.90;;;;;;5070073;28;20427;-69
2022/10/01 05:38:20;;;;;;;0.80;0.80;;;8.60;99.90;;;;;;5070266;28;20432;-68
2022/10/01 05:40:47;;;;;;;0.52;0.52;;;8.60;99.90;;;;;;5070039;28;20431;-68
2022/10/01 05:43:14;;;;;;;0.70;0.70;;;8.60;99.90;;;;;;5069638;28;20452;-68
2022/10/01 05:45:41;;;;;;;0.80;0.80;;;8.60;99.90;;;;;;5069820;28;20427;-68
2022/10/01 05:48:08;;;;;;;1.80;0.80;;;8.70;99.90;;;;;;5069692;28;20510;-69
2022/10/01 05:50:39;;;;;;;0.60;0.60;;;8.60;99.90;;;;;;5070190;28;20938;-68
2022/10/01 05:53:10;;;;;;;0.77;0.77;;;8.70;99.90;;;;;;5069339;28;20427;-69
2022/10/01 05:55:37;;;;;;;0.60;0.60;;;8.70;99.90;;;;;;5069744;28;20801;-68
2022/10/01 05:58:09;;;;;;;0.50;0.50;;;8.70;99.90;;;;;;5068646;28;20436;-69
2022/10/01 06:00:38;;;;;;;0.70;0.70;;;8.70;99.90;;;;;;5069679;28;20434;-68
2022/10/01 06:03:05;;;;;;;0.80;0.80;;;8.70;99.90;;;;;;5069465;28;20430;-69
2022/10/01 06:05:34;;;;;;;0.75;0.60;;;8.70;99.90;;;;;;5069941;28;20441;-69
2022/10/01 06:08:03;;;;;;;0.80;0.68;;;8.70;99.90;;;;;;5069929;28;20419;-69
2022/10/01 06:10:30;;;;;;;0.90;0.40;;;8.70;99.90;;;;;;5069655;28;20763;-69
2022/10/01 06:13:00;;;;;;;0.40;0.40;;;8.80;99.90;;;;;;5069530;28;20921;-69
2022/10/01 06:15:28;;;;;;;0.73;0.47;;;8.70;99.90;;;;;;5073576;28;20433;-69
2022/10/01 06:18:00;;;;;;;1.00;0.87;;;8.80;99.90;;;;;;5073730;28;20801;-69
2022/10/01 06:20:27;;;;;;;0.65;0.52;;;8.70;99.90;;;;;;5073826;28;20435;-69
2022/10/01 06:22:56;;;;;;;1.20;0.40;;;8.80;99.90;;;;;;5073620;28;20886;-70
2022/10/01 06:25:24;;;;;;;0.50;0.50;;;8.80;99.90;;;;;;5073693;28;20426;-69
2022/10/01 06:27:56;;;;;;;1.20;0.77;;;8.80;99.90;;;;;;5073917;28;20491;-70
2022/10/01 06:30:25;;;;;;;0.60;0.50;;;8.80;99.90;;;;;;5073934;28;20435;-70
2022/10/01 06:33:07;;;;;;;0.50;0.50;;;8.80;99.90;;;;;;5073630;28;20433;-68
2022/10/01 06:35:38;;;;;;;2.80;0.70;;;8.80;99.90;;;;;;5073641;28;20435;-68
2022/10/01 06:38:09;;;;;;;0.40;0.40;;;8.80;99.90;;;;;;5073209;28;20435;-68
2022/10/01 06:40:38;;;;;;;0.47;0.47;;;8.90;99.90;;;;;;5073694;28;20430;-68
2022/10/01 06:43:07;;;;;;;0.60;0.60;;;8.90;99.90;;;;;;5072705;28;20435;-68
2022/10/01 06:45:42;;;;;;;0.40;0.40;;;8.90;99.90;;;;;;5073217;28;20461;-68
2022/10/01 06:48:12;;;;;;;1.08;0.47;;;8.90;99.90;;;;;;5073213;28;21122;-70
2022/10/01 06:50:40;;;;;;;0.73;0.73;;;8.90;99.90;;;;;;5073116;28;20423;-71
2022/10/01 06:53:07;;;;;;;0.40;0.40;;;8.90;99.90;;;;;;5072534;28;20423;-70
2022/10/01 06:55:35;;;;;;;0.50;0.50;;;8.90;99.90;;;;;;5066937;28;20456;-69
2022/10/01 06:58:08;;;;;;;0.40;0.40;;;9.00;99.90;;;;;;5052881;28;20448;-70
2022/10/01 07:00:37;;;;;;;0.35;0.35;;;8.90;99.90;;;;;;5053213;28;20433;-69
2022/10/01 07:03:09;;;;;;;0.50;0.50;;;9.00;99.90;;;;;;5051186;28;20433;-70
2022/10/01 07:05:37;;;;;;;0.35;0.35;;;9.00;99.90;;;;;;5052903;28;20924;-69
2022/10/01 07:08:05;;;;;;;0.40;0.40;;;9.00;99.90;;;;;;5053006;28;20429;-70
2022/10/01 07:10:33;;;;;;;0.40;0.40;;;9.00;99.90;;;;;;5052814;28;20904;-70
2022/10/01 07:13:10;;;;;;;0.30;0.30;;;9.00;99.90;;;;;;5052640;28;20429;-70
2022/10/01 07:15:37;;;;;;;0.30;0.30;;;9.00;99.90;;;;;;5052650;28;20441;-70
2022/10/01 07:18:05;;;;;;;1.60;0.50;;;9.00;99.90;;;;;;5052702;28;20436;-71
2022/10/01 07:20:34;;;;;;;0.30;0.30;;;9.00;99.90;;;;;;5053010;28;20430;-69
2022/10/01 07:23:01;;;;;;;0.27;0.27;;;9.00;99.90;;;;;;5052046;28;20429;-70
2022/10/01 07:25:31;;;;;;;0.55;0.47;;;9.00;99.90;;;;;;5052020;28;21249;-70
2022/10/01 07:28:03;;;;;;;0.38;0.38;;;9.00;99.90;;;;;;5052273;28;20935;-71
2022/10/01 07:30:30;;;;;;;0.30;0.30;;;9.00;99.90;;;;;;5051306;28;20490;-70
2022/10/01 07:32:58;;;;;;;0.50;0.40;;;9.00;99.90;;;;;;5052169;28;20439;-71
2022/10/01 07:35:25;;;;;;;0.30;0.30;;;9.00;99.90;;;;;;5052338;28;20444;-71
2022/10/01 07:37:54;;;;;;;0.43;0.43;;;9.00;99.90;;;;;;5052474;28;20432;-71
2022/10/01 07:40:21;;;;;;;0.50;0.50;;;9.00;99.90;;;;;;5052085;28;20429;-71
2022/10/01 07:43:01;;;;;;;0.40;0.40;;;9.00;99.90;;;;;;5052079;28;20459;-71
2022/10/01 07:45:27;;;;;;;0.30;0.30;;;9.00;99.90;;;;;;5052387;28;20440;-71
2022/10/01 07:47:58;;;;;;;0.30;0.30;;;9.00;99.90;;;;;;5052220;28;20500;-71
2022/10/01 07:50:26;;;;;;;0.33;0.33;;;9.10;99.90;;;;;;5052248;28;20433;-70
2022/10/01 07:52:55;;;;;;;0.50;0.50;;;9.10;99.90;;;;;;5050477;28;20433;-70
2022/10/01 07:55:25;;;;;;;0.40;0.40;;;9.10;99.90;;;;;;5066805;28;21026;-71
2022/10/01 07:57:54;;;;;;;0.40;0.38;;;9.10;99.90;;;;;;5072258;28;20438;-71
2022/10/01 08:00:22;;;;;;;0.57;0.57;;;9.10;99.90;;;;;;5072150;28;20427;-72
2022/10/01 08:02:54;;;;;;;0.30;0.30;;;9.10;99.90;;;;;;5071788;28;20857;-71
2022/10/01 08:05:30;;;;;;;0.25;0.25;;;9.10;99.90;;;;;;5071694;28;20435;-71
2022/10/01 08:08:02;;;;;;;3.40;0.55;;;9.10;99.90;;;;;;5071940;28;20423;-71
2022/10/01 08:10:29;;;;;;;0.40;0.40;;;9.20;99.90;;;;;;5070649;28;20428;-71
2022/10/01 08:13:13;;;;;;;0.43;0.32;;;9.20;99.90;;;;;;5071549;28;20439;-71
2022/10/01 08:15:44;;;;;;;0.50;0.50;;;9.20;99.90;;;;;;5071765;28;20530;-71
2022/10/01 08:18:11;;;;;;;0.93;0.47;;;9.20;99.90;;;;;;5071551;28;20793;-70
2022/10/01 08:20:38;;;;;;;0.20;0.20;;;9.20;99.90;;;;;;5071800;28;20432;-71
2022/10/01 08:23:09;;;;;;;0.30;0.30;;;9.20;99.90;;;;;;5071395;28;20442;-72
2022/10/01 08:25:39;;;;;;;0.38;0.38;;;9.20;99.90;;;;;;5071497;28;20510;-71
2022/10/01 08:28:08;;;;;;;0.50;0.50;;;9.20;99.90;;;;;;5070702;28;20501;-71
2022/10/01 08:30:38;;;;;;;0.28;0.28;;;9.20;99.90;;;;;;5069762;28;20423;-71
2022/10/01 08:33:05;;;;;;;0.20;0.20;;;9.20;99.90;;;;;;5069768;28;20407;-72
2022/10/01 08:35:39;;;;;;;0.70;0.40;;;9.20;99.90;;;;;;5070511;28;20439;-71
2022/10/01 08:38:06;;;;;;;0.50;0.50;;;9.30;99.90;;;;;;5071197;28;20430;-71
2022/10/01 08:40:36;;;;;;;0.32;0.32;;;9.30;99.90;;;;;;5071218;28;21097;-71
2022/10/01 08:43:06;;;;;;;0.40;0.30;;;9.30;99.90;;;;;;5070733;28;20485;-70
2022/10/01 08:45:50;;;;;;;0.30;0.30;;;9.30;99.90;;;;;;5070369;28;20431;-71
2022/10/01 08:48:26;;;;;;;0.30;0.30;;;9.40;99.90;;;;;;5070326;28;20477;-71
2022/10/01 08:50:58;;;;;;;0.40;0.40;;;9.40;99.90;;;;;;5069921;28;21187;-71
2022/10/01 08:53:49;;;;;;;0.30;0.30;;;9.60;99.90;;;;;;5070119;28;20427;-71
2022/10/01 08:56:22;;;;;;;0.20;0.20;;;9.60;99.90;;;;;;5070567;28;20961;-70
2022/10/01 08:58:58;;;;;;;0.13;0.13;;;9.70;99.90;;;;;;5070685;28;20755;-70
2022/10/01 09:01:26;;;;;;;0.20;0.20;;;9.80;99.90;;;;;;5070610;28;20426;-70
2022/10/01 09:03:55;;;;;;;0.70;0.40;;;9.80;99.90;;;;;;5070012;28;20443;-70
2022/10/01 09:06:24;;;;;;;0.35;0.35;;;9.70;99.90;;;;;;5070877;28;20427;-70
2022/10/01 09:09:00;;;;;;;0.70;0.30;;;9.70;99.90;;;;;;5070651;28;20427;-71
2022/10/01 09:11:47;;;;;;;0.22;0.22;;;9.70;99.90;;;;;;5069352;28;20458;-70
2022/10/01 09:14:41;;;;;;;0.30;0.30;;;9.70;99.90;;;;;;5069987;28;20431;-70
2022/10/01 09:17:32;;;;;;;0.30;0.30;;;9.70;99.90;;;;;;5070707;28;20849;-70
2022/10/01 09:19:58;;;;;;;0.20;0.20;;;9.70;99.90;;;;;;5070656;28;20427;-70
2022/10/01 09:22:49;;;;;;;0.20;0.20;;;9.70;99.90;;;;;;5070339;28;20802;-69
2022/10/01 09:25:23;;;;;;;0.90;0.40;;;9.70;99.90;;;;;;5069885;28;20446;-70
2022/10/01 09:27:55;;;;;;;0.28;0.28;;;9.70;99.90;;;;;;5070206;28;20427;-71
2022/10/01 09:30:24;;;;;;;0.10;0.10;;;9.80;99.90;;;;;;5070303;28;20434;-71
2022/10/01 09:33:08;;;;;;;0.30;0.30;;;9.80;99.90;;;;;;5070110;28;20444;-70
2022/10/01 09:35:47;;;;;;;0.10;0.10;;;9.80;99.90;;;;;;5069119;28;20487;-71
2022/10/01 09:38:23;;;;;;;0.30;0.30;;;9.80;99.90;;;;;;5069008;28;20485;-69
2022/10/01 09:40:55;;;;;;;0.20;0.20;;;9.90;99.90;;;;;;5068985;28;20435;-70
2022/10/01 09:43:24;;;;;;;0.20;0.20;;;9.90;99.90;;;;;;5069690;28;20438;-72
2022/10/01 09:45:51;;;;;;;0.30;0.30;;;9.90;99.90;;;;;;5070145;28;20489;-69
2022/10/01 09:48:30;;;;;;;0.20;0.20;;;9.80;99.90;;;;;;5068946;28;20522;-70
2022/10/01 09:51:30;;;;;;;0.20;0.20;;;9.90;99.90;;;;;;5065845;28;20478;-70
2022/10/01 09:54:04;;;;;;;0.20;0.20;;;9.90;99.90;;;;;;5041911;28;20473;-69
2022/10/01 09:56:41;;;;;;;0.25;0.25;;;9.90;99.90;;;;;;5049343;28;20456;-69
2022/10/01 09:59:14;;;;;;;0.97;0.20;;;9.90;99.90;;;;;;5049225;28;20433;-70
2022/10/01 10:01:55;;;;;;;0.80;0.32;;;9.90;99.90;;;;;;5049350;28;20795;-70
2022/10/01 10:04:24;;;;;;;0.20;0.20;;;10.00;99.90;;;;;;5048027;28;20437;-70
2022/10/01 10:07:02;;;;;;;0.40;0.40;;;10.00;99.90;;;;;;5050009;28;20440;-69
2022/10/01 10:09:31;;;;;;;1.65;0.35;;;10.00;99.90;;;;;;5049947;28;20765;-70
2022/10/01 10:11:59;;;;;;;0.40;0.40;;;10.00;99.90;;;;;;5050005;28;20448;-69
2022/10/01 10:14:37;;;;;;;1.90;0.60;;;;;;;;;;5051538;28;20435;-70
2022/10/01 10:17:16;;;;;;;0.30;0.30;;;10.10;99.90;;;;;;5068577;28;20430;-69
2022/10/01 10:19:51;;;;;;;0.38;0.38;;;10.30;99.90;;;;;;5069884;28;21082;-69
2022/10/01 10:22:26;;;;;;;0.20;0.20;;;10.40;99.90;;;;;;5068557;28;20473;-70
2022/10/01 10:24:54;;;;;;;0.30;0.30;;;10.60;99.90;;;;;;5067841;28;20481;-69
2022/10/01 10:27:29;;;;;;;0.30;0.30;;;10.70;99.90;;;;;;5068373;28;20813;-69
2022/10/01 10:30:12;;;;;;;0.10;0.10;;;10.70;99.90;;;;;;5069748;28;20430;-70
2022/10/01 10:32:40;;;;;;;0.28;0.28;;;10.90;99.90;;;;;;5068069;28;21008;-68
2022/10/01 10:35:15;;;;;;;0.20;0.20;;;11.10;99.90;;;;;;5069274;28;20932;-69
2022/10/01 10:37:49;;;;;;;0.47;0.47;;;11.10;99.90;;;;;;5069507;28;20900;-69
2022/10/01 10:40:20;;;;;;;0.20;0.20;;;11.10;99.90;;;;;;5069674;28;20434;-70
2022/10/01 10:42:55;;;;;;;0.30;0.30;;;11.00;99.90;;;;;;5069631;28;20506;-70
2022/10/01 10:45:36;;;;;;;0.30;0.30;;;11.00;99.90;;;;;;5068136;28;20492;-70
2022/10/01 10:48:10;;;;;;;0.20;0.20;;;11.00;99.90;;;;;;5069300;28;20434;-70
2022/10/01 10:50:41;;;;;;;0.17;0.17;;;11.00;99.90;;;;;;5069581;28;20427;-70
2022/10/01 10:53:24;;;;;;;0.17;0.17;;;11.10;99.90;;;;;;5067702;28;20428;-69
2022/10/01 10:56:05;;;;;;;0.40;0.20;;;11.00;99.90;;;;;;5069354;28;20427;-68
2022/10/01 10:58:39;;;;;;;0.20;0.20;;;11.10;99.90;;;;;;5069161;28;20958;-70
2022/10/01 11:01:09;;;;;;;0.30;0.30;;;11.00;99.90;;;;;;5072842;28;20423;-70
2022/10/01 11:03:40;;;;;;;0.10;0.10;;;11.00;99.90;;;;;;5071203;28;20797;-69
2022/10/01 11:06:13;;;;;;;0.40;0.40;;;11.00;99.90;;;;;;5072751;28;20435;-70
2022/10/01 11:08:41;;;;;;;0.20;0.20;;;11.00;99.90;;;;;;5072653;28;20427;-70
2022/10/01 11:11:36;;;;;;;0.20;0.20;;;10.90;99.90;;;;;;5072807;28;20519;-69
2022/10/01 11:14:40;;;;;;;0.10;0.10;;;10.90;99.90;;;;;;5072723;28;20434;-70
2022/10/01 11:17:31;;;;;;;0.60;0.25;;;11.00;99.90;;;;;;5072788;28;21058;-69
2022/10/01 11:20:21;;;;;;;0.20;0.20;;;11.10;99.90;;;;;;5072764;28;20432;-70
2022/10/01 11:23:03;;;;;;;0.30;0.30;;;11.20;99.90;;;;;;5058784;28;20450;-71
2022/10/01 11:26:01;;;;;;;0.20;0.20;;;11.40;99.90;;;;;;5072201;28;20802;-70
2022/10/01 11:28:46;;;;;;;0.20;0.20;;;11.60;99.90;;;;;;5072258;28;20434;-70
2022/10/01 11:31:13;;;;;;;0.20;0.20;;;;;;;;;;5072330;28;20453;-70
2022/10/01 11:34:17;;;;;;;0.20;0.20;;;12.30;99.90;;;;;;5072119;28;20424;-70
2022/10/01 11:37:12;;;;;;;0.10;0.10;;;12.70;99.90;;;;;;5072059;28;20431;-70
2022/10/01 11:39:43;;;;;;;0.17;0.17;;;13.20;99.90;;;;;;5071050;28;20428;-70
2022/10/01 11:42:16;;;;;;;0.20;0.20;;;13.60;99.90;;;;;;5070810;28;20428;-70
2022/10/01 11:44:48;;;;;;;0.10;0.10;;;13.70;99.90;;;;;;5071994;28;20481;-70
2022/10/01 11:47:25;;;;;;;0.10;0.10;;;;;;;;;;5072422;28;20804;-70
2022/10/01 11:49:55;;;;;;;0.20;0.20;;;14.00;99.90;;;;;;5070511;28;20445;-70
2022/10/01 11:52:28;;;;;;;0.20;0.20;;;14.40;99.90;;;;;;5071988;28;20412;-69
2022/10/01 12:01:40;;;;;;;0.20;0.20;;;14.80;99.90;;;;;;5071767;28;20431;-70
2022/10/01 12:04:32;;;;;;;0.15;0.15;;;15.00;99.90;;;;;;5070364;28;20539;-69
2022/10/01 12:07:04;;;;;;;0.20;0.20;;;15.00;99.90;;;;;;5071478;28;20432;-69
2022/10/01 12:10:09;;;;;;;0.20;0.20;;;15.00;99.90;;;;;;5072310;28;20427;-69
2022/10/01 12:12:55;;;;;;;0.20;0.20;;;14.70;99.90;;;;;;5071883;28;20416;-70
2022/10/01 12:15:29;;;;;;;0.20;0.20;;;14.50;99.90;;;;;;5071594;28;20864;-70
2022/10/01 12:18:12;;;;;;;0.20;0.20;;;14.40;99.90;;;;;;5072211;28;20432;-71
2022/10/01 12:20:44;;;;;;;0.32;0.32;;;14.30;99.90;;;;;;5070115;28;20797;-71
2022/10/01 12:23:17;;;;;;;0.30;0.30;;;14.40;99.90;;;;;;5070203;28;20431;-70
2022/10/01 12:25:47;;;;;;;0.30;0.23;;;14.90;99.90;;;;;;5070190;28;20454;-70
2022/10/01 12:28:54;;;;;;;0.20;0.20;;;15.50;99.90;;;;;;5071398;28;20431;-70
2022/10/01 12:31:36;;;;;;;0.20;0.20;;;16.30;99.90;;;;;;5071235;28;20477;-68
2022/10/01 12:34:42;;;;;;;0.17;0.17;;;16.90;99.90;;;;;;5070922;28;20453;-67
2022/10/01 12:37:26;;;;;;;0.30;0.30;;;17.30;99.90;;;;;;5069790;28;20431;-69
2022/10/01 12:39:55;;;;;;;0.20;0.15;;;17.90;99.90;;;;;;5071402;28;20431;-68
2022/10/01 12:42:52;;;;;;;0.20;0.20;;;18.40;99.90;;;;;;5071168;28;20430;-70
2022/10/01 12:45:48;;;;;;;0.22;0.22;;;18.10;99.90;;;;;;5069637;28;20436;-70
2022/10/01 12:48:20;;;;;;;0.10;0.10;;;16.90;99.90;;;;;;5070967;28;20474;-70
2022/10/01 12:51:08;;;;;;;0.20;0.20;;;15.90;99.90;;;;;;5070753;28;20451;-70
2022/10/01 12:54:06;;;;;;;0.40;0.40;;;15.50;99.90;;;;;;5069371;28;20415;-72
2022/10/01 12:56:52;;;;;;;0.30;0.30;;;15.20;99.90;;;;;;5071032;28;20431;-71
2022/10/01 12:59:39;;;;;;;0.22;0.22;;;15.00;99.90;;;;;;5070756;28;20901;-70
2022/10/01 13:02:42;;;;;;;0.20;0.20;;;15.00;99.90;;;;;;5070751;28;20906;-71
2022/10/01 13:05:39;;;;;;;0.38;0.38;;;15.50;99.90;;;;;;5070154;28;20454;-70
2022/10/01 13:08:21;;;;;;;0.27;0.27;;;15.70;99.90;;;;;;5070745;28;20431;-71
2022/10/01 13:11:04;;;;;;;0.20;0.20;;;16.40;99.90;;;;;;5070695;28;20446;-70
2022/10/01 13:13:32;;;;;;;0.20;0.20;;;17.20;99.90;;;;;;5070210;28;20427;-71
2022/10/01 13:16:36;;;;;;;0.20;0.20;;;17.70;99.90;;;;;;5069136;28;20822;-71
2022/10/01 13:19:29;;;;;;;0.10;0.10;;;18.10;99.90;;;;;;5069365;28;20432;-71
2022/10/01 13:22:15;;;;;;;0.30;0.20;;;18.40;99.90;;;;;;5068851;28;20450;-72
2022/10/01 13:24:52;;;;;;;0.20;0.20;;;18.60;99.90;;;;;;5070268;28;20439;-70
2022/10/01 13:28:00;;;;;;;0.10;0.10;;;18.70;99.90;;;;;;5070122;28;20431;-71
2022/10/01 13:30:40;;;;;;;0.20;0.20;;;19.10;99.90;;;;;;5070387;28;20902;-72
2022/10/01 13:33:22;;;;;;;0.20;0.20;;;19.40;99.90;;;;;;5070165;28;20489;-72
2022/10/01 13:36:18;;;;;;;0.20;0.20;;;19.60;99.90;;;;;;5069153;28;20434;-71
2022/10/01 13:38:46;;;;;;;0.20;0.20;;;19.60;99.90;;;;;;5070197;28;20826;-71